Wawona, California
Current Conditions -  °F | °C
As of 12:35 AM on Saturday 29 Nov 2014 (Local Time) from KMMH Reporting Station
Clear Clear  
Wind Chill: 38°   Ceiling: Unl
Heat Index: 46°   Visibility: 10mi
Dew Point:   Wind: 23mph
Humidity: 16%   Direction: 230°SW
Pressure: 29.95"   Gusts: 33mph
Location:  37.6076°N, 119.603°W
Report Text: KMMH 290835Z AUTO 23020G29KT 10SM CLR 08/M17 A2995 RMK AO1
Loading
Personal Weather Stations






























Interactive Weather Map New forecast layout! Learn more

10-Day Weather Forecast

Advertisements
Track Severe Weather on mobile